sensor_id;sensor_type;location;lat;lon;timestamp;P1;durP1;ratioP1;P2;durP2;ratioP2
26014;SDS011;13793;55.388;37.844;2023-11-22T00:00:09;15.37;;;8.67;;
26014;SDS011;13793;55.388;37.844;2023-11-22T00:02:42;12.00;;;8.13;;
26014;SDS011;13793;55.388;37.844;2023-11-22T00:05:15;12.60;;;7.23;;
26014;SDS011;13793;55.388;37.844;2023-11-22T00:07:46;13.63;;;7.90;;
26014;SDS011;13793;55.388;37.844;2023-11-22T00:10:17;13.70;;;8.33;;
26014;SDS011;13793;55.388;37.844;2023-11-22T00:12:49;11.67;;;7.97;;
26014;SDS011;13793;55.388;37.844;2023-11-22T00:15:20;16.87;;;8.77;;
26014;SDS011;13793;55.388;37.844;2023-11-22T00:17:51;11.63;;;7.73;;
26014;SDS011;13793;55.388;37.844;2023-11-22T00:20:23;12.43;;;7.67;;
26014;SDS011;13793;55.388;37.844;2023-11-22T00:22:54;12.73;;;8.17;;
26014;SDS011;13793;55.388;37.844;2023-11-22T00:25:26;12.80;;;8.33;;
26014;SDS011;13793;55.388;37.844;2023-11-22T00:27:57;12.37;;;7.47;;
26014;SDS011;13793;55.388;37.844;2023-11-22T00:30:28;12.80;;;7.97;;
26014;SDS011;13793;55.388;37.844;2023-11-22T00:32:59;11.87;;;7.47;;
26014;SDS011;13793;55.388;37.844;2023-11-22T00:35:30;13.17;;;7.90;;
26014;SDS011;13793;55.388;37.844;2023-11-22T00:38:05;11.77;;;6.90;;
26014;SDS011;13793;55.388;37.844;2023-11-22T00:40:37;13.57;;;7.70;;
26014;SDS011;13793;55.388;37.844;2023-11-22T00:43:08;14.03;;;7.80;;
26014;SDS011;13793;55.388;37.844;2023-11-22T00:45:39;12.70;;;7.67;;
26014;SDS011;13793;55.388;37.844;2023-11-22T00:48:10;13.03;;;7.57;;
26014;SDS011;13793;55.388;37.844;2023-11-22T00:50:41;12.63;;;8.20;;
26014;SDS011;13793;55.388;37.844;2023-11-22T00:53:13;10.33;;;6.87;;
26014;SDS011;13793;55.388;37.844;2023-11-22T00:55:45;11.53;;;7.00;;
26014;SDS011;13793;55.388;37.844;2023-11-22T00:58:17;13.87;;;7.33;;
26014;SDS011;13793;55.388;37.844;2023-11-22T01:00:48;9.70;;;6.90;;
26014;SDS011;13793;55.388;37.844;2023-11-22T01:03:19;12.43;;;7.47;;
26014;SDS011;13793;55.388;37.844;2023-11-22T01:05:50;11.67;;;7.33;;
26014;SDS011;13793;55.388;37.844;2023-11-22T01:08:21;13.43;;;7.70;;
26014;SDS011;13793;55.388;37.844;2023-11-22T01:10:54;11.20;;;7.27;;
26014;SDS011;13793;55.388;37.844;2023-11-22T01:13:26;13.17;;;6.87;;
26014;SDS011;13793;55.388;37.844;2023-11-22T01:15:58;12.50;;;7.03;;
26014;SDS011;13793;55.388;37.844;2023-11-22T01:18:30;10.23;;;7.20;;
26014;SDS011;13793;55.388;37.844;2023-11-22T01:21:01;11.83;;;7.10;;
26014;SDS011;13793;55.388;37.844;2023-11-22T01:23:35;12.47;;;7.47;;
26014;SDS011;13793;55.388;37.844;2023-11-22T01:26:07;12.67;;;7.60;;
26014;SDS011;13793;55.388;37.844;2023-11-22T01:28:38;14.43;;;9.27;;
26014;SDS011;13793;55.388;37.844;2023-11-22T01:31:11;14.93;;;9.13;;
26014;SDS011;13793;55.388;37.844;2023-11-22T01:33:43;14.33;;;9.07;;
26014;SDS011;13793;55.388;37.844;2023-11-22T01:36:16;15.27;;;8.70;;
26014;SDS011;13793;55.388;37.844;2023-11-22T01:38:47;13.63;;;7.70;;
26014;SDS011;13793;55.388;37.844;2023-11-22T01:41:19;12.37;;;7.77;;
26014;SDS011;13793;55.388;37.844;2023-11-22T01:43:51;11.97;;;7.33;;
26014;SDS011;13793;55.388;37.844;2023-11-22T01:46:23;14.13;;;7.13;;
26014;SDS011;13793;55.388;37.844;2023-11-22T01:48:54;13.10;;;7.47;;
26014;SDS011;13793;55.388;37.844;2023-11-22T01:51:26;11.13;;;6.63;;
26014;SDS011;13793;55.388;37.844;2023-11-22T01:53:58;11.80;;;7.00;;
26014;SDS011;13793;55.388;37.844;2023-11-22T01:56:30;11.50;;;7.17;;
26014;SDS011;13793;55.388;37.844;2023-11-22T01:59:01;11.33;;;7.37;;
26014;SDS011;13793;55.388;37.844;2023-11-22T02:01:32;13.00;;;7.60;;
26014;SDS011;13793;55.388;37.844;2023-11-22T02:04:04;11.40;;;7.30;;
26014;SDS011;13793;55.388;37.844;2023-11-22T02:06:35;11.30;;;7.43;;
26014;SDS011;13793;55.388;37.844;2023-11-22T02:09:07;10.70;;;7.73;;
26014;SDS011;13793;55.388;37.844;2023-11-22T02:11:40;10.63;;;6.77;;
26014;SDS011;13793;55.388;37.844;2023-11-22T02:14:13;16.87;;;6.80;;
26014;SDS011;13793;55.388;37.844;2023-11-22T02:16:45;12.97;;;7.23;;
26014;SDS011;13793;55.388;37.844;2023-11-22T02:19:16;10.40;;;6.80;;
26014;SDS011;13793;55.388;37.844;2023-11-22T02:21:48;10.63;;;6.80;;
26014;SDS011;13793;55.388;37.844;2023-11-22T02:24:21;10.90;;;6.87;;
26014;SDS011;13793;55.388;37.844;2023-11-22T02:26:52;10.33;;;6.80;;
26014;SDS011;13793;55.388;37.844;2023-11-22T02:29:23;11.07;;;6.87;;
26014;SDS011;13793;55.388;37.844;2023-11-22T02:31:55;13.20;;;7.73;;
26014;SDS011;13793;55.388;37.844;2023-11-22T02:34:27;18.80;;;9.53;;
26014;SDS011;13793;55.388;37.844;2023-11-22T02:36:58;18.10;;;10.03;;
26014;SDS011;13793;55.388;37.844;2023-11-22T02:39:33;12.17;;;7.80;;
26014;SDS011;13793;55.388;37.844;2023-11-22T02:44:37;12.33;;;7.17;;
26014;SDS011;13793;55.388;37.844;2023-11-22T02:47:09;14.50;;;8.27;;
26014;SDS011;13793;55.388;37.844;2023-11-22T02:49:40;13.07;;;7.57;;
26014;SDS011;13793;55.388;37.844;2023-11-22T02:52:12;13.43;;;8.00;;
26014;SDS011;13793;55.388;37.844;2023-11-22T02:54:44;15.13;;;8.50;;
26014;SDS011;13793;55.388;37.844;2023-11-22T02:57:15;14.63;;;8.27;;
26014;SDS011;13793;55.388;37.844;2023-11-22T02:59:46;14.03;;;8.50;;
26014;SDS011;13793;55.388;37.844;2023-11-22T03:02:17;15.33;;;9.10;;
26014;SDS011;13793;55.388;37.844;2023-11-22T03:04:48;14.27;;;8.10;;
26014;SDS011;13793;55.388;37.844;2023-11-22T03:07:20;15.10;;;8.47;;
26014;SDS011;13793;55.388;37.844;2023-11-22T03:09:51;16.83;;;8.83;;
26014;SDS011;13793;55.388;37.844;2023-11-22T03:12:22;13.90;;;8.30;;
26014;SDS011;13793;55.388;37.844;2023-11-22T03:14:54;14.30;;;8.20;;
26014;SDS011;13793;55.388;37.844;2023-11-22T03:17:27;14.70;;;8.33;;
26014;SDS011;13793;55.388;37.844;2023-11-22T03:19:59;16.17;;;8.87;;
26014;SDS011;13793;55.388;37.844;2023-11-22T03:22:31;18.63;;;8.83;;
26014;SDS011;13793;55.388;37.844;2023-11-22T03:25:03;15.83;;;8.67;;
26014;SDS011;13793;55.388;37.844;2023-11-22T03:27:34;14.93;;;8.50;;
26014;SDS011;13793;55.388;37.844;2023-11-22T03:30:06;13.97;;;8.43;;
26014;SDS011;13793;55.388;37.844;2023-11-22T03:32:40;14.90;;;8.50;;
26014;SDS011;13793;55.388;37.844;2023-11-22T03:35:13;15.60;;;9.00;;
26014;SDS011;13793;55.388;37.844;2023-11-22T03:37:46;16.73;;;9.40;;
26014;SDS011;13793;55.388;37.844;2023-11-22T03:40:18;13.93;;;8.70;;
26014;SDS011;13793;55.388;37.844;2023-11-22T03:42:49;16.53;;;8.60;;
26014;SDS011;13793;55.388;37.844;2023-11-22T03:45:20;20.77;;;9.80;;
26014;SDS011;13793;55.388;37.844;2023-11-22T03:47:51;22.37;;;10.00;;
26014;SDS011;13793;55.388;37.844;2023-11-22T03:50:23;17.73;;;9.90;;
26014;SDS011;13793;55.388;37.844;2023-11-22T03:52:54;24.43;;;9.57;;
26014;SDS011;13793;55.388;37.844;2023-11-22T03:55:26;20.17;;;9.97;;
26014;SDS011;13793;55.388;37.844;2023-11-22T03:57:57;16.40;;;9.43;;
26014;SDS011;13793;55.388;37.844;2023-11-22T04:00:28;17.87;;;9.27;;
26014;SDS011;13793;55.388;37.844;2023-11-22T04:03:01;20.20;;;10.30;;
26014;SDS011;13793;55.388;37.844;2023-11-22T04:05:32;23.73;;;11.43;;
26014;SDS011;13793;55.388;37.844;2023-11-22T04:08:04;28.17;;;12.50;;
26014;SDS011;13793;55.388;37.844;2023-11-22T04:10:37;22.33;;;11.17;;
26014;SDS011;13793;55.388;37.844;2023-11-22T04:13:09;24.03;;;10.93;;
26014;SDS011;13793;55.388;37.844;2023-11-22T04:15:41;27.97;;;11.87;;
26014;SDS011;13793;55.388;37.844;2023-11-22T04:18:12;27.57;;;11.80;;
26014;SDS011;13793;55.388;37.844;2023-11-22T04:20:44;23.70;;;10.03;;
26014;SDS011;13793;55.388;37.844;2023-11-22T04:23:18;25.63;;;10.23;;
26014;SDS011;13793;55.388;37.844;2023-11-22T04:25:50;24.50;;;9.80;;
26014;SDS011;13793;55.388;37.844;2023-11-22T04:28:21;19.83;;;9.77;;
26014;SDS011;13793;55.388;37.844;2023-11-22T04:30:53;22.07;;;9.33;;
26014;SDS011;13793;55.388;37.844;2023-11-22T04:33:24;26.93;;;8.77;;
26014;SDS011;13793;55.388;37.844;2023-11-22T04:35:59;19.40;;;9.60;;
26014;SDS011;13793;55.388;37.844;2023-11-22T04:38:30;17.30;;;8.03;;
26014;SDS011;13793;55.388;37.844;2023-11-22T04:41:03;21.83;;;9.63;;
26014;SDS011;13793;55.388;37.844;2023-11-22T04:43:34;21.10;;;8.90;;
26014;SDS011;13793;55.388;37.844;2023-11-22T04:46:06;21.30;;;9.67;;
26014;SDS011;13793;55.388;37.844;2023-11-22T04:48:37;16.33;;;9.13;;
26014;SDS011;13793;55.388;37.844;2023-11-22T04:51:09;15.80;;;9.10;;
26014;SDS011;13793;55.388;37.844;2023-11-22T04:53:40;15.13;;;8.83;;
26014;SDS011;13793;55.388;37.844;2023-11-22T04:56:12;14.80;;;8.40;;
26014;SDS011;13793;55.388;37.844;2023-11-22T04:58:45;16.47;;;7.60;;
26014;SDS011;13793;55.388;37.844;2023-11-22T05:01:16;11.60;;;7.43;;
26014;SDS011;13793;55.388;37.844;2023-11-22T05:03:47;14.13;;;8.13;;
26014;SDS011;13793;55.388;37.844;2023-11-22T05:06:18;14.27;;;7.83;;
26014;SDS011;13793;55.388;37.844;2023-11-22T05:08:49;13.80;;;8.30;;
26014;SDS011;13793;55.388;37.844;2023-11-22T05:11:21;14.50;;;8.53;;
26014;SDS011;13793;55.388;37.844;2023-11-22T05:13:52;15.77;;;8.60;;
26014;SDS011;13793;55.388;37.844;2023-11-22T05:16:24;12.90;;;8.33;;
26014;SDS011;13793;55.388;37.844;2023-11-22T05:18:54;15.77;;;7.80;;
26014;SDS011;13793;55.388;37.844;2023-11-22T05:21:26;15.30;;;7.80;;
26014;SDS011;13793;55.388;37.844;2023-11-22T05:23:57;11.70;;;7.60;;
26014;SDS011;13793;55.388;37.844;2023-11-22T05:26:28;13.37;;;8.80;;
26014;SDS011;13793;55.388;37.844;2023-11-22T05:29:00;13.43;;;7.60;;
26014;SDS011;13793;55.388;37.844;2023-11-22T05:31:32;14.97;;;7.80;;
26014;SDS011;13793;55.388;37.844;2023-11-22T05:34:03;11.83;;;7.47;;
26014;SDS011;13793;55.388;37.844;2023-11-22T05:36:34;12.87;;;7.10;;
26014;SDS011;13793;55.388;37.844;2023-11-22T05:39:05;13.50;;;7.80;;
26014;SDS011;13793;55.388;37.844;2023-11-22T05:41:37;10.93;;;6.80;;
26014;SDS011;13793;55.388;37.844;2023-11-22T05:44:09;12.40;;;7.90;;
26014;SDS011;13793;55.388;37.844;2023-11-22T05:46:40;11.07;;;7.20;;
26014;SDS011;13793;55.388;37.844;2023-11-22T05:49:11;14.30;;;7.93;;
26014;SDS011;13793;55.388;37.844;2023-11-22T05:51:42;12.43;;;7.63;;
26014;SDS011;13793;55.388;37.844;2023-11-22T05:54:17;12.87;;;7.97;;
26014;SDS011;13793;55.388;37.844;2023-11-22T05:56:48;13.60;;;8.57;;
26014;SDS011;13793;55.388;37.844;2023-11-22T05:59:19;15.93;;;8.60;;
26014;SDS011;13793;55.388;37.844;2023-11-22T06:01:51;11.10;;;7.73;;
26014;SDS011;13793;55.388;37.844;2023-11-22T06:04:22;15.13;;;8.00;;
26014;SDS011;13793;55.388;37.844;2023-11-22T06:06:53;13.33;;;7.93;;
26014;SDS011;13793;55.388;37.844;2023-11-22T06:09:24;12.20;;;7.37;;
26014;SDS011;13793;55.388;37.844;2023-11-22T06:11:55;12.03;;;7.33;;
26014;SDS011;13793;55.388;37.844;2023-11-22T06:14:26;12.27;;;7.97;;
26014;SDS011;13793;55.388;37.844;2023-11-22T06:16:57;13.63;;;8.40;;
26014;SDS011;13793;55.388;37.844;2023-11-22T06:19:29;14.10;;;9.33;;
26014;SDS011;13793;55.388;37.844;2023-11-22T06:22:00;12.30;;;7.50;;
26014;SDS011;13793;55.388;37.844;2023-11-22T06:24:31;11.77;;;7.60;;
26014;SDS011;13793;55.388;37.844;2023-11-22T06:27:02;12.30;;;7.70;;
26014;SDS011;13793;55.388;37.844;2023-11-22T06:29:34;10.63;;;6.57;;
26014;SDS011;13793;55.388;37.844;2023-11-22T06:32:06;9.57;;;6.50;;
26014;SDS011;13793;55.388;37.844;2023-11-22T06:34:38;7.40;;;6.00;;
26014;SDS011;13793;55.388;37.844;2023-11-22T06:37:09;7.43;;;5.93;;
26014;SDS011;13793;55.388;37.844;2023-11-22T06:39:40;9.37;;;6.23;;
26014;SDS011;13793;55.388;37.844;2023-11-22T06:42:11;8.93;;;6.10;;
26014;SDS011;13793;55.388;37.844;2023-11-22T06:44:42;10.03;;;6.00;;
26014;SDS011;13793;55.388;37.844;2023-11-22T06:47:17;10.23;;;6.13;;
26014;SDS011;13793;55.388;37.844;2023-11-22T06:49:49;8.97;;;5.97;;
26014;SDS011;13793;55.388;37.844;2023-11-22T06:52:20;9.83;;;6.83;;
26014;SDS011;13793;55.388;37.844;2023-11-22T06:54:51;10.50;;;5.90;;
26014;SDS011;13793;55.388;37.844;2023-11-22T06:57:25;9.93;;;6.60;;
26014;SDS011;13793;55.388;37.844;2023-11-22T06:59:58;9.50;;;6.43;;
26014;SDS011;13793;55.388;37.844;2023-11-22T07:02:31;9.20;;;6.63;;
26014;SDS011;13793;55.388;37.844;2023-11-22T07:05:04;8.97;;;6.10;;
26014;SDS011;13793;55.388;37.844;2023-11-22T07:07:38;10.40;;;6.97;;
26014;SDS011;13793;55.388;37.844;2023-11-22T07:10:10;12.53;;;6.60;;
26014;SDS011;13793;55.388;37.844;2023-11-22T07:12:43;10.53;;;7.00;;
26014;SDS011;13793;55.388;37.844;2023-11-22T07:15:14;10.40;;;7.07;;
26014;SDS011;13793;55.388;37.844;2023-11-22T07:17:46;11.17;;;6.80;;
26014;SDS011;13793;55.388;37.844;2023-11-22T07:20:18;11.90;;;7.30;;
26014;SDS011;13793;55.388;37.844;2023-11-22T07:22:49;10.27;;;6.77;;
26014;SDS011;13793;55.388;37.844;2023-11-22T07:25:21;11.63;;;7.03;;
26014;SDS011;13793;55.388;37.844;2023-11-22T07:27:54;10.17;;;7.40;;
26014;SDS011;13793;55.388;37.844;2023-11-22T07:30:25;10.40;;;6.87;;
26014;SDS011;13793;55.388;37.844;2023-11-22T07:32:57;11.67;;;7.33;;
26014;SDS011;13793;55.388;37.844;2023-11-22T07:35:28;13.07;;;7.67;;
26014;SDS011;13793;55.388;37.844;2023-11-22T07:38:02;8.77;;;6.20;;
26014;SDS011;13793;55.388;37.844;2023-11-22T07:40:33;10.33;;;6.00;;
26014;SDS011;13793;55.388;37.844;2023-11-22T07:43:07;9.43;;;5.90;;
26014;SDS011;13793;55.388;37.844;2023-11-22T07:45:38;8.27;;;5.77;;
26014;SDS011;13793;55.388;37.844;2023-11-22T07:48:10;10.23;;;6.30;;
26014;SDS011;13793;55.388;37.844;2023-11-22T07:50:42;9.17;;;6.10;;
26014;SDS011;13793;55.388;37.844;2023-11-22T07:53:13;9.97;;;5.97;;
26014;SDS011;13793;55.388;37.844;2023-11-22T07:55:46;8.20;;;6.10;;
26014;SDS011;13793;55.388;37.844;2023-11-22T07:58:19;10.03;;;7.93;;
26014;SDS011;13793;55.388;37.844;2023-11-22T08:00:50;9.43;;;6.93;;
26014;SDS011;13793;55.388;37.844;2023-11-22T08:03:23;9.07;;;6.73;;
26014;SDS011;13793;55.388;37.844;2023-11-22T08:05:54;9.73;;;6.77;;
26014;SDS011;13793;55.388;37.844;2023-11-22T08:08:25;8.40;;;6.57;;
26014;SDS011;13793;55.388;37.844;2023-11-22T08:10:56;10.53;;;6.93;;
26014;SDS011;13793;55.388;37.844;2023-11-22T08:13:27;10.90;;;6.60;;
26014;SDS011;13793;55.388;37.844;2023-11-22T08:15:59;8.40;;;6.23;;
26014;SDS011;13793;55.388;37.844;2023-11-22T08:18:30;10.03;;;6.20;;
26014;SDS011;13793;55.388;37.844;2023-11-22T08:21:01;11.20;;;6.20;;
26014;SDS011;13793;55.388;37.844;2023-11-22T08:23:32;7.93;;;6.00;;
26014;SDS011;13793;55.388;37.844;2023-11-22T08:26:04;10.00;;;6.30;;
26014;SDS011;13793;55.388;37.844;2023-11-22T08:28:37;7.63;;;5.97;;
26014;SDS011;13793;55.388;37.844;2023-11-22T08:31:09;7.50;;;6.00;;
26014;SDS011;13793;55.388;37.844;2023-11-22T08:33:40;7.83;;;5.63;;
26014;SDS011;13793;55.388;37.844;2023-11-22T08:36:12;9.50;;;5.20;;
26014;SDS011;13793;55.388;37.844;2023-11-22T08:38:43;8.40;;;5.20;;
26014;SDS011;13793;55.388;37.844;2023-11-22T08:41:14;8.40;;;5.17;;
26014;SDS011;13793;55.388;37.844;2023-11-22T08:43:46;8.27;;;5.40;;
26014;SDS011;13793;55.388;37.844;2023-11-22T08:46:17;8.17;;;5.20;;
26014;SDS011;13793;55.388;37.844;2023-11-22T08:48:48;7.37;;;5.00;;
26014;SDS011;13793;55.388;37.844;2023-11-22T08:51:21;6.97;;;5.07;;
26014;SDS011;13793;55.388;37.844;2023-11-22T08:53:52;10.90;;;5.77;;
26014;SDS011;13793;55.388;37.844;2023-11-22T08:56:23;5.93;;;4.60;;
26014;SDS011;13793;55.388;37.844;2023-11-22T08:58:54;6.47;;;4.40;;
26014;SDS011;13793;55.388;37.844;2023-11-22T09:01:26;4.03;;;3.47;;
26014;SDS011;13793;55.388;37.844;2023-11-22T09:03:57;5.40;;;3.80;;
26014;SDS011;13793;55.388;37.844;2023-11-22T09:06:28;8.70;;;5.13;;
26014;SDS011;13793;55.388;37.844;2023-11-22T09:09:01;8.53;;;5.03;;
26014;SDS011;13793;55.388;37.844;2023-11-22T09:11:32;9.13;;;5.00;;
26014;SDS011;13793;55.388;37.844;2023-11-22T09:14:03;6.07;;;4.57;;
26014;SDS011;13793;55.388;37.844;2023-11-22T09:16:35;12.50;;;5.67;;
26014;SDS011;13793;55.388;37.844;2023-11-22T09:19:09;8.83;;;4.77;;
26014;SDS011;13793;55.388;37.844;2023-11-22T09:21:41;7.57;;;4.33;;
26014;SDS011;13793;55.388;37.844;2023-11-22T09:24:12;6.57;;;4.73;;
26014;SDS011;13793;55.388;37.844;2023-11-22T09:26:43;8.40;;;4.60;;
26014;SDS011;13793;55.388;37.844;2023-11-22T09:29:14;8.27;;;5.03;;
26014;SDS011;13793;55.388;37.844;2023-11-22T09:31:47;8.13;;;4.93;;
26014;SDS011;13793;55.388;37.844;2023-11-22T09:34:19;5.83;;;4.30;;
26014;SDS011;13793;55.388;37.844;2023-11-22T09:36:50;8.13;;;4.80;;
26014;SDS011;13793;55.388;37.844;2023-11-22T09:39:21;7.10;;;4.40;;
26014;SDS011;13793;55.388;37.844;2023-11-22T09:41:53;9.93;;;6.07;;
26014;SDS011;13793;55.388;37.844;2023-11-22T09:44:24;6.07;;;4.50;;
26014;SDS011;13793;55.388;37.844;2023-11-22T09:46:56;9.13;;;5.53;;
26014;SDS011;13793;55.388;37.844;2023-11-22T09:49:27;7.57;;;4.90;;
26014;SDS011;13793;55.388;37.844;2023-11-22T09:51:59;10.77;;;5.67;;
26014;SDS011;13793;55.388;37.844;2023-11-22T09:54:36;14.78;;;7.70;;
26014;SDS011;13793;55.388;37.844;2023-11-22T09:57:09;13.20;;;8.23;;
26014;SDS011;13793;55.388;37.844;2023-11-22T09:59:40;7.67;;;4.70;;
26014;SDS011;13793;55.388;37.844;2023-11-22T10:02:12;8.13;;;5.57;;
26014;SDS011;13793;55.388;37.844;2023-11-22T10:04:43;9.37;;;6.23;;
26014;SDS011;13793;55.388;37.844;2023-11-22T10:07:14;7.37;;;4.97;;
26014;SDS011;13793;55.388;37.844;2023-11-22T10:09:46;9.40;;;5.57;;
26014;SDS011;13793;55.388;37.844;2023-11-22T10:12:20;9.77;;;5.13;;
26014;SDS011;13793;55.388;37.844;2023-11-22T10:14:51;11.60;;;5.97;;
26014;SDS011;13793;55.388;37.844;2023-11-22T10:17:22;7.97;;;4.60;;
26014;SDS011;13793;55.388;37.844;2023-11-22T10:19:53;7.90;;;4.80;;
26014;SDS011;13793;55.388;37.844;2023-11-22T10:22:24;10.13;;;4.60;;
26014;SDS011;13793;55.388;37.844;2023-11-22T10:24:59;7.20;;;4.70;;
26014;SDS011;13793;55.388;37.844;2023-11-22T10:27:30;6.67;;;4.80;;
26014;SDS011;13793;55.388;37.844;2023-11-22T10:30:00;14.57;;;5.67;;
26014;SDS011;13793;55.388;37.844;2023-11-22T10:32:32;11.93;;;6.73;;
26014;SDS011;13793;55.388;37.844;2023-11-22T10:35:03;12.40;;;5.93;;
26014;SDS011;13793;55.388;37.844;2023-11-22T10:37:36;9.43;;;5.97;;
26014;SDS011;13793;55.388;37.844;2023-11-22T10:40:07;12.30;;;5.93;;
26014;SDS011;13793;55.388;37.844;2023-11-22T10:42:42;10.70;;;6.40;;
26014;SDS011;13793;55.388;37.844;2023-11-22T10:45:13;13.53;;;6.97;;
26014;SDS011;13793;55.388;37.844;2023-11-22T10:47:45;11.80;;;7.67;;
26014;SDS011;13793;55.388;37.844;2023-11-22T10:50:16;13.77;;;7.93;;
26014;SDS011;13793;55.388;37.844;2023-11-22T10:52:47;10.67;;;6.90;;
26014;SDS011;13793;55.388;37.844;2023-11-22T10:55:19;13.50;;;8.40;;
26014;SDS011;13793;55.388;37.844;2023-11-22T10:57:51;9.87;;;6.77;;
26014;SDS011;13793;55.388;37.844;2023-11-22T11:00:24;8.17;;;5.60;;
26014;SDS011;13793;55.388;37.844;2023-11-22T11:03:00;10.23;;;6.03;;
26014;SDS011;13793;55.388;37.844;2023-11-22T11:05:33;8.55;;;5.75;;
26014;SDS011;13793;55.388;37.844;2023-11-22T11:08:07;9.07;;;5.47;;
26014;SDS011;13793;55.388;37.844;2023-11-22T11:10:43;10.47;;;5.37;;
26014;SDS011;13793;55.388;37.844;2023-11-22T11:13:14;8.87;;;5.77;;
26014;SDS011;13793;55.388;37.844;2023-11-22T11:15:46;11.37;;;6.13;;
26014;SDS011;13793;55.388;37.844;2023-11-22T11:18:17;9.77;;;5.60;;
26014;SDS011;13793;55.388;37.844;2023-11-22T11:20:49;8.43;;;5.37;;
26014;SDS011;13793;55.388;37.844;2023-11-22T11:23:21;11.10;;;5.67;;
26014;SDS011;13793;55.388;37.844;2023-11-22T11:25:54;9.03;;;6.00;;
26014;SDS011;13793;55.388;37.844;2023-11-22T11:28:26;10.40;;;5.33;;
26014;SDS011;13793;55.388;37.844;2023-11-22T11:30:57;8.13;;;4.80;;
26014;SDS011;13793;55.388;37.844;2023-11-22T11:33:52;10.10;;;5.27;;
26014;SDS011;13793;55.388;37.844;2023-11-22T11:36:03;12.30;;;5.37;;
26014;SDS011;13793;55.388;37.844;2023-11-22T11:38:35;9.17;;;5.20;;
26014;SDS011;13793;55.388;37.844;2023-11-22T11:41:08;14.73;;;5.97;;
26014;SDS011;13793;55.388;37.844;2023-11-22T11:43:41;12.53;;;6.10;;
26014;SDS011;13793;55.388;37.844;2023-11-22T11:46:16;13.27;;;6.60;;
26014;SDS011;13793;55.388;37.844;2023-11-22T11:48:47;9.57;;;5.20;;
26014;SDS011;13793;55.388;37.844;2023-11-22T11:51:32;9.77;;;4.93;;
26014;SDS011;13793;55.388;37.844;2023-11-22T11:53:57;9.60;;;4.63;;
26014;SDS011;13793;55.388;37.844;2023-11-22T11:56:28;9.17;;;5.10;;
26014;SDS011;13793;55.388;37.844;2023-11-22T11:59:00;7.53;;;4.70;;
26014;SDS011;13793;55.388;37.844;2023-11-22T12:01:32;9.20;;;4.77;;
26014;SDS011;13793;55.388;37.844;2023-11-22T12:04:03;7.53;;;4.63;;
26014;SDS011;13793;55.388;37.844;2023-11-22T12:06:34;8.43;;;4.90;;
26014;SDS011;13793;55.388;37.844;2023-11-22T12:09:06;8.17;;;4.87;;
26014;SDS011;13793;55.388;37.844;2023-11-22T12:11:38;9.27;;;4.97;;
26014;SDS011;13793;55.388;37.844;2023-11-22T12:14:10;7.30;;;5.17;;
26014;SDS011;13793;55.388;37.844;2023-11-22T12:16:42;10.57;;;4.77;;
26014;SDS011;13793;55.388;37.844;2023-11-22T12:19:22;11.07;;;4.97;;
26014;SDS011;13793;55.388;37.844;2023-11-22T12:21:54;6.87;;;4.63;;
26014;SDS011;13793;55.388;37.844;2023-11-22T12:24:25;9.00;;;4.80;;
26014;SDS011;13793;55.388;37.844;2023-11-22T12:26:56;8.40;;;5.30;;
26014;SDS011;13793;55.388;37.844;2023-11-22T12:29:27;10.90;;;5.13;;
26014;SDS011;13793;55.388;37.844;2023-11-22T12:31:58;11.47;;;5.40;;
26014;SDS011;13793;55.388;37.844;2023-11-22T12:34:29;10.73;;;5.30;;
26014;SDS011;13793;55.388;37.844;2023-11-22T12:37:00;8.70;;;5.13;;
26014;SDS011;13793;55.388;37.844;2023-11-22T12:39:33;10.47;;;5.87;;
26014;SDS011;13793;55.388;37.844;2023-11-22T12:42:06;10.83;;;4.97;;
26014;SDS011;13793;55.388;37.844;2023-11-22T12:44:52;8.30;;;4.73;;
26014;SDS011;13793;55.388;37.844;2023-11-22T12:47:32;12.13;;;5.33;;
26014;SDS011;13793;55.388;37.844;2023-11-22T12:50:07;6.63;;;5.10;;
26014;SDS011;13793;55.388;37.844;2023-11-22T12:52:40;10.97;;;5.40;;
26014;SDS011;13793;55.388;37.844;2023-11-22T12:55:11;7.90;;;4.57;;
26014;SDS011;13793;55.388;37.844;2023-11-22T12:57:42;12.57;;;5.30;;
26014;SDS011;13793;55.388;37.844;2023-11-22T13:00:14;11.43;;;5.47;;
26014;SDS011;13793;55.388;37.844;2023-11-22T13:02:46;9.23;;;5.00;;
26014;SDS011;13793;55.388;37.844;2023-11-22T13:05:17;10.57;;;5.30;;
26014;SDS011;13793;55.388;37.844;2023-11-22T13:07:48;10.10;;;5.10;;
26014;SDS011;13793;55.388;37.844;2023-11-22T13:10:19;9.50;;;5.17;;
26014;SDS011;13793;55.388;37.844;2023-11-22T13:12:52;9.80;;;5.90;;
26014;SDS011;13793;55.388;37.844;2023-11-22T13:15:23;12.27;;;6.33;;
26014;SDS011;13793;55.388;37.844;2023-11-22T13:17:55;10.23;;;5.53;;
26014;SDS011;13793;55.388;37.844;2023-11-22T13:20:27;13.73;;;5.83;;
26014;SDS011;13793;55.388;37.844;2023-11-22T13:22:58;10.20;;;5.47;;
26014;SDS011;13793;55.388;37.844;2023-11-22T13:25:29;8.60;;;5.40;;
26014;SDS011;13793;55.388;37.844;2023-11-22T13:28:00;10.83;;;6.23;;
26014;SDS011;13793;55.388;37.844;2023-11-22T13:30:33;12.90;;;6.40;;
26014;SDS011;13793;55.388;37.844;2023-11-22T13:33:04;13.30;;;6.43;;
26014;SDS011;13793;55.388;37.844;2023-11-22T13:35:35;12.97;;;6.67;;
26014;SDS011;13793;55.388;37.844;2023-11-22T13:38:06;13.40;;;6.90;;
26014;SDS011;13793;55.388;37.844;2023-11-22T13:40:39;14.80;;;6.57;;
26014;SDS011;13793;55.388;37.844;2023-11-22T13:43:12;12.67;;;6.40;;
26014;SDS011;13793;55.388;37.844;2023-11-22T13:45:43;16.17;;;7.53;;
26014;SDS011;13793;55.388;37.844;2023-11-22T13:48:14;18.33;;;7.83;;
26014;SDS011;13793;55.388;37.844;2023-11-22T13:50:45;12.37;;;6.70;;
26014;SDS011;13793;55.388;37.844;2023-11-22T13:53:16;13.13;;;6.90;;
26014;SDS011;13793;55.388;37.844;2023-11-22T13:55:49;14.73;;;6.43;;
26014;SDS011;13793;55.388;37.844;2023-11-22T13:58:22;13.37;;;6.53;;
26014;SDS011;13793;55.388;37.844;2023-11-22T14:00:53;13.17;;;6.30;;
26014;SDS011;13793;55.388;37.844;2023-11-22T14:03:24;15.40;;;7.03;;
26014;SDS011;13793;55.388;37.844;2023-11-22T14:05:55;15.07;;;7.23;;
26014;SDS011;13793;55.388;37.844;2023-11-22T14:08:28;11.97;;;6.40;;
26014;SDS011;13793;55.388;37.844;2023-11-22T14:10:58;13.90;;;6.93;;
26014;SDS011;13793;55.388;37.844;2023-11-22T14:13:30;13.70;;;7.03;;
26014;SDS011;13793;55.388;37.844;2023-11-22T14:16:01;13.63;;;6.70;;
26014;SDS011;13793;55.388;37.844;2023-11-22T14:18:33;15.03;;;7.27;;
26014;SDS011;13793;55.388;37.844;2023-11-22T14:21:04;16.23;;;7.47;;
26014;SDS011;13793;55.388;37.844;2023-11-22T14:23:35;19.50;;;7.80;;
26014;SDS011;13793;55.388;37.844;2023-11-22T14:26:06;13.13;;;6.80;;
26014;SDS011;13793;55.388;37.844;2023-11-22T14:28:37;19.23;;;7.00;;
26014;SDS011;13793;55.388;37.844;2023-11-22T14:31:10;15.50;;;7.13;;
26014;SDS011;13793;55.388;37.844;2023-11-22T14:33:41;13.87;;;7.27;;
26014;SDS011;13793;55.388;37.844;2023-11-22T14:36:12;18.67;;;7.40;;
26014;SDS011;13793;55.388;37.844;2023-11-22T14:38:42;17.80;;;7.53;;
26014;SDS011;13793;55.388;37.844;2023-11-22T14:41:13;17.43;;;7.27;;
26014;SDS011;13793;55.388;37.844;2023-11-22T14:43:45;14.93;;;8.10;;
26014;SDS011;13793;55.388;37.844;2023-11-22T14:46:16;17.83;;;8.10;;
26014;SDS011;13793;55.388;37.844;2023-11-22T14:48:48;19.07;;;8.70;;
26014;SDS011;13793;55.388;37.844;2023-11-22T14:51:19;16.33;;;8.43;;
26014;SDS011;13793;55.388;37.844;2023-11-22T14:53:50;18.83;;;9.17;;